Etusivu
METAR-TAF:

METAR-TAF

Lentoasemat :

Anoka County-Blaine Airport (Janes Field)

Minneapolis / Blaine, Minnesota, Yhdysvallat

Leveyspiiri: 45-09N, Pituuspiiri: 093-13W, korkeus merenpinnasta: 278 m

Tämänhetkinen sää

Tämä raportti tehtiin 15 minuuttia sitten, kello 03.55 UTC
Tuuli 6 kn pohjoisesta
Lämpötila 6°C
Kosteus 93%
Ilmanpaine 1020 hPa
Näkyvyys: 16.1 km
selkeää

METAR: KANE 230355Z AUTO 01006KT 10SM CLR 06/05 A3011 RMK AO2

Aika: 23:10 (04:10 UTC)


TAF: puuttuu

Säähavainnot ja -ennusteet yli 4000 lentoasemalta (METAR- ja TAF-raportit).

Käytössä olevat sääasemat on merkitty karttaan keltaisilla ja punaisilla pisteillä.

Aseta hiiri pisteen päälle nähdäksesi sääaseman nimen.

Klikkaa sitten nähdäksesi säähavainnot ja -ennusteet.

Kartan vaihtaminen: klikkaa mustalla rastilla varustettuja vihreitä pisteitä, niin voit zoomata sisään; viivalla varustettua vihreää pistettä, niin voit zoomata ulos tai vihreitä nuolia, niin pääset viereisille kartoille.


METAR-TAF: